CheckWX is a tool to help pilots better visualize weather data.  It is not intended as a substitute for an official pre-flight weather briefing.

07:09:28 UTC

KFNT TAF
Bishop International Airport
Flint, Michigan, USA
KFNT 241121Z 2412/2512 17005KT P6SM FEW035 BKN060 OVC100 FM241600 22012G18KT P6SM SCT045 FM250100 20003KT P6SM SKC FM250900 20002KT 4SM BR SKC

May-24@
12:00 UTC

May-24 @ 12:00 UTC

May-24@
16:00 UTC

May-24 @ 16:00 UTC

TAF KFNT 241121Z 2412/2512 17005KT P6SM FEW035 BKN060 OVC100

Expired

Wind
  • 170° at 5 KTS
Cloud Levels
  • Few at 3,500' AGL
  • Broken at 6,000' AGL
  • Overcast at 10,000' AGL

May-24@
16:00 UTC

May-24 @ 16:00 UTC

May-25@
01:00 UTC

May-25 @ 01:00 UTC

FM241600 22012G18KT P6SM SCT045

Expired

Wind
  • 220° at 12 KTS
  • {Gusting to 18 KTS
Cloud Levels
  • Scattered at 4,500' AGL

May-25@
01:00 UTC

May-25 @ 01:00 UTC

May-25@
09:00 UTC

May-25 @ 09:00 UTC

FM250100 20003KT P6SM SKC

From

From Standard forecast or significant change

Wind
  • 200° at 3 KTS
Cloud Levels
  • Clear skies

May-25@
09:00 UTC

May-25 @ 09:00 UTC

May-25@
12:00 UTC

May-25 @ 12:00 UTC

FM250900 20002KT 4SM BR SKC

From

From Standard forecast or significant change

Wind
  • 200° at 2 KTS
Conditions
Mist
Cloud Levels
  • Clear skies